KAID/AID METAR and TAF weather

Enter ICAO airport designator
Station Type Date Time Source
KAID METAR 2018/04/20 19:50 UTC NOAA

KAID 201950Z 36005KT 10SM CLR 14/M05 A3045


Station Type Date Time Source
KAID Decoded METAR 2018/04/20 19:50 UTC NOAA

Anderson Municipal, IN, United States (KAID) 40-07N 085-37W
Apr 20, 2018 - 03:50 PM EDT / 2018.04.20 1950 UTC
Wind: from the N (360 degrees) at 6 MPH (5 KT):0
Visibility: 10 mile(s):0
Sky conditions: clear
Temperature: 57 F (14 C)
Dew Point: 23 F (-5 C)
Relative Humidity: 26%
Pressure (altimeter): 30.45 in. Hg (1031 hPa)
ob: KAID 201950Z 36005KT 10SM CLR 14/M05 A3045
cycle: 20

Station Type Date Time Source
KAID TAF UTC NOAA

Error!


Example: see airport list